Time;durP1;ratioP1;P1;durP2;ratioP2;P2;SDS_P1;SDS_P2;PMS_P1;PMS_P2;Temp;Humidity;BMP_temperature;BMP_pressure;BME280_temperature;BME280_humidity;BME280_pressure;Samples;Min_cycle;Max_cycle;Signal;HPM_P1;HPM_P2
2023/07/22 00:01:23;;;;;;;3.65;2.55;;;18.00;99.90;;;;;;2604529;47;20762;31
2023/07/22 00:04:00;;;;;;;2.97;2.20;;;17.90;99.90;;;;;;2585969;54;20027;31
2023/07/22 00:06:34;;;;;;;4.95;2.50;;;17.90;99.90;;;;;;2585858;54;20037;31
2023/07/22 00:09:19;;;;;;;5.57;2.40;;;17.90;99.90;;;;;;2585998;54;20840;31
2023/07/22 00:11:57;;;;;;;3.40;2.65;;;17.80;99.90;;;;;;2586077;54;20046;31
2023/07/22 00:14:34;;;;;;;2.80;2.30;;;17.70;99.90;;;;;;2585331;54;20022;31
2023/07/22 00:17:13;;;;;;;3.40;2.20;;;17.70;99.90;;;;;;2585971;54;20056;31
2023/07/22 00:19:50;;;;;;;4.20;2.50;;;17.70;99.90;;;;;;2585832;54;20926;31
2023/07/22 00:22:26;;;;;;;2.80;2.28;;;17.70;99.90;;;;;;2585997;54;20816;31
2023/07/22 00:25:06;;;;;;;3.50;2.35;;;17.70;99.90;;;;;;2586466;54;20880;31
2023/07/22 00:27:42;;;;;;;4.43;2.33;;;17.70;99.90;;;;;;2585812;54;20060;31
2023/07/22 00:30:17;;;;;;;3.25;2.75;;;17.60;99.90;;;;;;2586007;54;20948;31
2023/07/22 00:32:55;;;;;;;3.58;2.58;;;17.50;99.90;;;;;;2586625;54;20053;31
2023/07/22 00:35:31;;;;;;;2.40;2.08;;;17.50;99.90;;;;;;2586479;54;20898;31
2023/07/22 00:38:11;;;;;;;2.63;2.23;;;17.50;99.90;;;;;;2586603;54;20029;31
2023/07/22 00:40:49;;;;;;;3.65;2.70;;;17.50;99.90;;;;;;2586840;54;20031;31
2023/07/22 00:43:25;;;;;;;4.90;2.30;;;17.50;99.90;;;;;;2594247;46;20868;31
2023/07/22 00:46:09;;;;;;;2.37;1.97;;;17.50;99.90;;;;;;2585548;54;20026;31
2023/07/22 00:48:48;;;;;;;4.53;2.22;;;17.50;99.90;;;;;;2585842;54;20239;31
2023/07/22 00:51:28;;;;;;;4.07;2.53;;;17.40;99.90;;;;;;2585841;54;20846;31
2023/07/22 00:54:07;;;;;;;2.65;2.40;;;17.40;99.90;;;;;;2605171;46;20030;31
2023/07/22 00:56:53;;;;;;;5.00;2.70;;;17.40;99.90;;;;;;2587080;54;21019;31
2023/07/22 00:59:32;;;;;;;4.10;2.30;;;17.40;99.90;;;;;;2586622;54;20875;31
2023/07/22 01:02:09;;;;;;;7.13;2.72;;;17.40;99.90;;;;;;2586693;54;20047;31
2023/07/22 01:04:45;;;;;;;3.38;2.10;;;17.40;99.90;;;;;;2586587;54;20023;31
2023/07/22 01:07:25;;;;;;;4.93;2.63;;;17.30;99.90;;;;;;2586621;54;20867;31
2023/07/22 01:10:16;;;;;;;6.07;2.60;;;17.30;99.90;;;;;;2586576;54;20929;31
2023/07/22 01:12:58;;;;;;;5.15;2.45;;;17.30;99.90;;;;;;2586711;54;21176;31
2023/07/22 01:18:07;;;;;;;3.55;2.40;;;17.30;99.90;;;;;;2585723;54;20891;31
2023/07/22 01:20:43;;;;;;;3.90;2.35;;;17.20;99.90;;;;;;2585579;54;20055;31
2023/07/22 01:23:28;;;;;;;3.50;2.45;;;17.20;99.90;;;;;;2585494;54;20722;31
2023/07/22 01:26:04;;;;;;;3.65;2.45;;;17.10;99.90;;;;;;2585568;54;20793;31
2023/07/22 01:28:45;;;;;;;5.50;3.10;;;17.10;99.90;;;;;;2586674;54;20895;31
2023/07/22 01:31:19;;;;;;;3.60;3.00;;;17.10;99.90;;;;;;2604981;46;20077;31
2023/07/22 01:33:56;;;;;;;4.35;3.13;;;17.00;99.90;;;;;;2604900;46;20046;31
2023/07/22 01:36:33;;;;;;;3.95;3.00;;;17.00;99.90;;;;;;2586033;54;20027;31
2023/07/22 01:39:16;;;;;;;3.13;2.22;;;17.00;99.90;;;;;;2585558;54;20031;31
2023/07/22 01:41:49;;;;;;;3.63;2.95;;;16.90;99.90;;;;;;2585560;54;20875;31
2023/07/22 01:44:33;;;;;;;3.10;2.80;;;16.90;99.90;;;;;;2585841;54;20049;31
2023/07/22 01:47:09;;;;;;;3.00;2.70;;;16.90;99.90;;;;;;2586539;54;20022;31
2023/07/22 01:49:43;;;;;;;2.85;2.55;;;16.80;99.90;;;;;;2604767;46;20034;31
2023/07/22 01:52:20;;;;;;;3.72;2.80;;;16.80;99.90;;;;;;2586434;54;20963;31
2023/07/22 01:55:05;;;;;;;6.70;3.60;;;16.80;99.90;;;;;;2586508;54;20834;31
2023/07/22 01:57:43;;;;;;;5.35;3.30;;;16.80;99.90;;;;;;2605004;46;20089;31
2023/07/22 02:00:19;;;;;;;2.92;2.63;;;16.70;99.90;;;;;;2586507;54;20863;31
2023/07/22 02:02:57;;;;;;;4.90;2.67;;;16.70;99.90;;;;;;2586041;54;20827;31
2023/07/22 02:05:35;;;;;;;4.38;3.40;;;16.70;99.90;;;;;;2604943;46;20053;31
2023/07/22 02:08:11;;;;;;;4.10;3.80;;;16.60;99.90;;;;;;2585833;54;20026;31
2023/07/22 02:10:48;;;;;;;4.95;3.75;;;16.60;99.90;;;;;;2586339;54;20052;31
2023/07/22 02:13:25;;;;;;;7.47;3.97;;;16.50;99.90;;;;;;2594607;46;20054;31
2023/07/22 02:16:01;;;;;;;6.95;3.60;;;16.50;99.90;;;;;;2585644;54;20054;31
2023/07/22 02:18:39;;;;;;;4.28;3.70;;;16.50;99.90;;;;;;2586090;54;20037;31
2023/07/22 02:21:14;;;;;;;3.58;3.28;;;16.40;99.90;;;;;;2586342;54;19939;31
2023/07/22 02:23:50;;;;;;;5.15;3.90;;;16.40;99.90;;;;;;2586532;54;20027;31
2023/07/22 02:26:29;;;;;;;6.30;3.60;;;16.40;99.90;;;;;;2586328;54;20897;31
2023/07/22 02:29:05;;;;;;;4.85;4.22;;;16.30;99.90;;;;;;2586345;54;20882;31
2023/07/22 02:31:46;;;;;;;5.60;4.65;;;16.30;99.90;;;;;;2586432;54;20885;31
2023/07/22 02:34:23;;;;;;;4.80;4.40;;;16.30;99.90;;;;;;2586321;54;19934;31
2023/07/22 02:36:59;;;;;;;4.72;4.00;;;16.30;99.90;;;;;;2594543;46;20018;31
2023/07/22 02:39:38;;;;;;;;;;;16.30;99.90;;;;;;2586385;54;20938;31
2023/07/22 02:42:11;;;;;;;5.80;3.35;;;16.20;99.90;;;;;;2684242;39;21303;31
2023/07/22 02:44:48;;;;;;;5.20;3.90;;;16.30;99.90;;;;;;2585789;54;21296;31
2023/07/22 02:47:26;;;;;;;4.90;3.50;;;16.30;99.90;;;;;;2586386;54;20877;31
2023/07/22 02:50:03;;;;;;;5.43;4.47;;;16.20;99.90;;;;;;2586426;54;20777;31
2023/07/22 02:52:41;;;;;;;3.83;2.80;;;16.40;99.90;;;;;;2585913;54;20780;31
2023/07/22 02:55:18;;;;;;;4.38;3.55;;;16.40;99.90;;;;;;2585265;54;20062;31
2023/07/22 02:57:53;;;;;;;6.13;4.90;;;16.40;99.90;;;;;;2586173;54;20966;31
2023/07/22 03:00:35;;;;;;;3.92;3.45;;;16.40;99.90;;;;;;2586135;54;21225;31
2023/07/22 03:03:11;;;;;;;6.95;4.57;;;16.40;99.90;;;;;;2586150;54;20029;31
2023/07/22 03:05:47;;;;;;;5.32;4.03;;;16.40;99.90;;;;;;2604833;46;20758;31
2023/07/22 03:08:23;;;;;;;5.50;3.90;;;16.40;99.90;;;;;;2586233;54;20910;31
2023/07/22 03:10:59;;;;;;;5.68;4.60;;;16.40;99.90;;;;;;2586224;54;20146;31
2023/07/22 03:13:35;;;;;;;6.85;5.55;;;16.40;99.90;;;;;;2585745;54;20023;31
2023/07/22 03:16:15;;;;;;;6.90;4.50;;;16.50;99.90;;;;;;2586142;54;20030;31
2023/07/22 03:18:58;;;;;;;5.40;4.07;;;16.50;99.90;;;;;;2586279;54;20882;31
2023/07/22 03:21:34;;;;;;;6.25;5.65;;;16.50;99.90;;;;;;2585765;54;20033;31
2023/07/22 03:24:12;;;;;;;7.85;5.75;;;16.50;99.90;;;;;;2585711;54;20033;31
2023/07/22 03:26:56;;;;;;;7.27;4.50;;;16.50;99.90;;;;;;2687611;39;21317;31
2023/07/22 03:29:33;;;;;;;4.50;4.10;;;16.50;99.90;;;;;;2586024;54;20370;31
2023/07/22 03:32:12;;;;;;;6.07;4.63;;;16.50;99.90;;;;;;2585312;54;20026;31
2023/07/22 03:34:46;;;;;;;9.90;5.93;;;16.50;99.90;;;;;;2585098;54;20677;31
2023/07/22 03:37:26;;;;;;;6.95;6.05;;;16.50;99.90;;;;;;2585972;54;20851;31
2023/07/22 03:40:02;;;;;;;6.57;5.50;;;16.40;99.90;;;;;;2604480;47;20888;31
2023/07/22 03:42:39;;;;;;;6.85;5.20;;;16.40;99.90;;;;;;2585300;54;21099;31
2023/07/22 03:45:17;;;;;;;5.68;4.70;;;16.40;99.90;;;;;;2604527;47;20050;31
2023/07/22 03:47:59;;;;;;;6.75;5.70;;;16.50;99.90;;;;;;2586528;54;20860;31
2023/07/22 03:50:34;;;;;;;7.35;5.60;;;16.50;99.90;;;;;;2586178;54;20943;31
2023/07/22 03:53:12;;;;;;;10.07;5.18;;;16.50;99.90;;;;;;2605245;46;20062;31
2023/07/22 03:55:49;;;;;;;7.30;5.00;;;16.60;99.90;;;;;;2754590;31;20495;31
2023/07/22 03:58:30;;;;;;;6.40;4.70;;;16.70;99.90;;;;;;2605470;46;20774;31
2023/07/22 04:01:09;;;;;;;6.13;4.85;;;16.80;99.90;;;;;;2586906;54;20973;31
2023/07/22 04:03:47;;;;;;;5.70;4.05;;;16.90;99.90;;;;;;2586650;54;20026;31
2023/07/22 04:06:19;;;;;;;8.75;4.20;;;16.90;99.90;;;;;;2586472;54;20732;31
2023/07/22 04:08:53;;;;;;;5.25;3.85;;;17.00;99.90;;;;;;2604579;46;20177;31
2023/07/22 04:11:30;;;;;;;7.10;4.43;;;17.10;99.90;;;;;;2586703;54;20022;31
2023/07/22 04:14:05;;;;;;;6.30;4.80;;;17.20;99.90;;;;;;2586739;54;20030;31
2023/07/22 04:16:41;;;;;;;7.18;4.00;;;17.40;99.90;;;;;;2605377;46;20985;31
2023/07/22 04:19:23;;;;;;;4.97;4.05;;;17.50;99.90;;;;;;2586764;54;20035;31
2023/07/22 04:22:10;;;;;;;7.35;4.20;;;17.70;99.90;;;;;;2586905;54;21437;31
2023/07/22 04:24:48;;;;;;;6.13;4.35;;;17.90;99.90;;;;;;2586650;54;20030;31
2023/07/22 04:27:25;;;;;;;4.80;3.50;;;18.00;99.90;;;;;;2586826;54;20023;31
2023/07/22 04:30:06;;;;;;;5.40;4.05;;;18.20;99.90;;;;;;2765671;31;20246;31
2023/07/22 04:32:41;;;;;;;4.40;3.73;;;18.30;99.90;;;;;;2605251;46;20153;31
2023/07/22 04:35:21;;;;;;;6.45;3.80;;;18.50;99.90;;;;;;2596551;46;20101;31
2023/07/22 04:37:54;;;;;;;6.40;3.85;;;18.70;99.90;;;;;;2586318;54;20760;31
2023/07/22 04:40:32;;;;;;;6.25;3.10;;;18.90;99.90;;;;;;2599182;46;20113;31
2023/07/22 04:43:09;;;;;;;6.50;2.97;;;19.00;99.90;;;;;;2586026;54;20059;31
2023/07/22 04:45:47;;;;;;;7.85;3.35;;;19.20;99.90;;;;;;2586659;54;20826;31
2023/07/22 04:48:25;;;;;;;3.72;2.80;;;19.30;99.90;;;;;;2586489;54;20951;31
2023/07/22 04:51:04;;;;;;;9.20;2.85;;;19.40;99.90;;;;;;2586714;54;20748;31
2023/07/22 04:53:42;;;;;;;3.70;2.75;;;19.50;99.90;;;;;;2586486;54;20031;31
2023/07/22 04:56:20;;;;;;;6.82;3.22;;;19.60;99.90;;;;;;2586603;54;20978;31
2023/07/22 04:58:59;;;;;;;4.20;2.40;;;19.70;99.90;;;;;;2586654;54;20033;31
2023/07/22 05:01:34;;;;;;;4.70;2.50;;;19.90;99.90;;;;;;2585792;54;20877;31
2023/07/22 05:04:11;;;;;;;7.45;2.70;;;20.10;99.90;;;;;;2585938;54;20030;31
2023/07/22 05:06:58;;;;;;;3.30;2.30;;;20.30;99.90;;;;;;2586975;54;20161;31
2023/07/22 05:09:33;;;;;;;;;;;20.40;99.90;;;;;;2587216;54;20909;31
2023/07/22 05:12:10;;;;;;;8.77;2.35;;;20.50;99.90;;;;;;2601282;46;19949;31
2023/07/22 05:14:46;;;;;;;3.08;2.10;;;20.50;99.90;;;;;;2585850;54;20023;31
2023/07/22 05:17:18;;;;;;;;;;;20.60;99.90;;;;;;2604525;46;20784;31
2023/07/22 05:19:56;;;;;;;4.33;2.47;;;20.60;99.90;;;;;;2586224;54;19958;31
2023/07/22 05:22:39;;;;;;;10.25;3.00;;;20.70;99.90;;;;;;2604908;46;20242;31
2023/07/22 05:25:14;;;;;;;3.05;2.20;;;20.80;99.90;;;;;;2586276;54;20031;31
2023/07/22 05:27:51;;;;;;;3.90;2.67;;;20.90;99.90;;;;;;2603891;46;20027;31
2023/07/22 05:30:28;;;;;;;6.80;2.30;;;20.80;99.90;;;;;;2586668;54;19934;31
2023/07/22 05:33:11;;;;;;;5.30;2.28;;;20.70;99.90;;;;;;2586724;54;20026;31
2023/07/22 05:35:46;;;;;;;4.22;2.13;;;20.90;99.90;;;;;;2586196;54;20042;31
2023/07/22 05:38:27;;;;;;;5.05;2.05;;;21.00;99.90;;;;;;2604883;46;20026;31
2023/07/22 05:41:04;;;;;;;3.83;2.42;;;21.20;99.90;;;;;;2586414;54;20029;31
2023/07/22 05:43:42;;;;;;;4.05;2.15;;;21.30;99.90;;;;;;2604766;46;19939;31
2023/07/22 05:46:18;;;;;;;5.90;2.03;;;21.40;99.90;;;;;;2586587;54;20652;31
2023/07/22 05:48:55;;;;;;;5.50;2.33;;;21.50;99.90;;;;;;2586368;54;20033;31
2023/07/22 05:51:31;;;;;;;3.30;2.20;;;21.60;99.90;;;;;;2596176;46;20025;31
2023/07/22 05:54:12;;;;;;;5.05;2.45;;;21.70;99.90;;;;;;2585744;54;20751;31
2023/07/22 05:56:48;;;;;;;9.90;2.30;;;21.80;99.90;;;;;;2605076;46;20270;31
2023/07/22 05:59:23;;;;;;;;;;;21.90;99.90;;;;;;2585593;54;20105;31
2023/07/22 06:01:59;;;;;;;4.32;2.60;;;21.80;99.90;;;;;;2605000;46;20826;31
2023/07/22 06:04:38;;;;;;;5.07;2.13;;;21.90;99.90;;;;;;2586474;54;20939;31
2023/07/22 06:07:13;;;;;;;4.28;2.35;;;22.10;99.90;;;;;;2585539;54;20721;31
2023/07/22 06:10:00;;;;;;;6.10;1.65;;;22.20;99.90;;;;;;2585702;54;20881;31
2023/07/22 06:12:38;;;;;;;7.78;2.15;;;22.40;99.90;;;;;;2586058;54;20914;31
2023/07/22 06:15:15;;;;;;;6.07;2.20;;;22.60;99.90;;;;;;2604570;46;20034;31
2023/07/22 06:17:53;;;;;;;7.53;2.30;;;22.60;99.90;;;;;;2585482;54;20035;31
2023/07/22 06:20:29;;;;;;;4.30;2.40;;;22.70;99.90;;;;;;2586218;54;20898;31
2023/07/22 06:23:07;;;;;;;4.77;2.07;;;22.70;99.90;;;;;;2585507;54;20030;31
2023/07/22 06:25:47;;;;;;;4.20;2.55;;;23.00;99.90;;;;;;2586331;54;20027;31
2023/07/22 06:28:23;;;;;;;5.40;2.13;;;23.00;99.90;;;;;;2586542;54;20826;31
2023/07/22 06:30:59;;;;;;;5.40;2.78;;;23.10;99.90;;;;;;2585557;54;20772;31
2023/07/22 06:33:36;;;;;;;5.25;2.30;;;23.10;99.90;;;;;;2586221;54;20032;31
2023/07/22 06:36:14;;;;;;;3.20;2.10;;;23.20;99.90;;;;;;2586477;54;20854;31
2023/07/22 06:38:54;;;;;;;3.53;2.00;;;23.30;99.90;;;;;;2586127;54;20250;31
2023/07/22 06:41:33;;;;;;;4.80;2.15;;;23.50;99.90;;;;;;2586649;54;20740;31
2023/07/22 06:44:13;;;;;;;5.65;2.30;;;23.70;99.90;;;;;;2586304;54;20026;31
2023/07/22 06:46:49;;;;;;;4.30;1.90;;;23.60;99.90;;;;;;2585441;54;20049;31
2023/07/22 06:49:29;;;;;;;6.67;2.10;;;23.20;99.90;;;;;;2585553;54;20978;31
2023/07/22 06:52:15;;;;;;;3.90;2.70;;;23.10;99.90;;;;;;2586432;54;20030;31
2023/07/22 06:54:51;;;;;;;5.65;2.45;;;22.80;99.90;;;;;;2586311;54;20844;31
2023/07/22 06:57:32;;;;;;;6.65;2.10;;;22.50;99.90;;;;;;2586287;54;20082;31
2023/07/22 07:00:11;;;;;;;4.50;2.07;;;22.40;99.90;;;;;;2586021;54;20845;31
2023/07/22 07:02:51;;;;;;;5.17;2.27;;;22.20;99.90;;;;;;2586029;54;20023;31
2023/07/22 07:05:28;;;;;;;5.30;2.70;;;21.90;99.90;;;;;;2586167;54;20354;31
2023/07/22 07:08:07;;;;;;;4.20;2.28;;;21.90;99.90;;;;;;2586071;54;20861;31
2023/07/22 07:10:43;;;;;;;6.40;3.20;;;22.00;99.90;;;;;;2585994;54;20875;31
2023/07/22 07:13:24;;;;;;;3.53;2.33;;;22.20;99.90;;;;;;2683190;39;21460;31
2023/07/22 07:16:00;;;;;;;4.77;2.27;;;22.50;99.90;;;;;;2586222;54;20242;31
2023/07/22 07:18:34;;;;;;;4.40;2.17;;;22.70;99.90;;;;;;2585277;54;20133;31
2023/07/22 07:21:10;;;;;;;3.50;1.85;;;23.00;99.90;;;;;;2604449;46;20042;31
2023/07/22 07:23:54;;;;;;;4.72;2.38;;;23.10;99.90;;;;;;2586005;54;20054;31
2023/07/22 07:26:33;;;;;;;5.32;1.40;;;23.10;99.90;;;;;;2586156;54;20053;31
2023/07/22 07:29:14;;;;;;;4.00;1.80;;;23.30;99.90;;;;;;2585158;54;20118;31
2023/07/22 07:32:10;;;;;;;3.95;1.90;;;23.40;99.90;;;;;;2586210;54;20027;31
2023/07/22 07:34:50;;;;;;;6.30;1.80;;;23.70;99.90;;;;;;2586323;54;20817;31
2023/07/22 07:37:29;;;;;;;5.47;1.63;;;24.00;99.90;;;;;;2586147;54;20050;31
2023/07/22 07:40:12;;;;;;;4.80;2.05;;;23.90;99.90;;;;;;2604549;47;20048;31
2023/07/22 07:42:48;;;;;;;3.15;1.80;;;24.00;99.90;;;;;;2585888;54;20867;31
2023/07/22 07:45:30;;;;;;;2.65;1.75;;;24.20;99.90;;;;;;2586018;54;20031;31
2023/07/22 07:48:08;;;;;;;3.30;1.85;;;24.40;99.90;;;;;;2683844;39;21575;31
2023/07/22 07:50:47;;;;;;;2.03;1.50;;;24.60;99.90;;;;;;2586041;54;21705;31
2023/07/22 07:53:21;;;;;;;4.13;1.80;;;24.70;99.90;;;;;;2585898;54;20030;31
2023/07/22 07:55:57;;;;;;;3.60;2.20;;;24.60;99.90;;;;;;2585152;54;20763;31
2023/07/22 07:58:34;;;;;;;3.10;1.70;;;24.20;99.90;;;;;;2682815;39;21490;31
2023/07/22 08:01:13;;;;;;;3.08;1.15;;;23.80;99.90;;;;;;2597255;47;20333;31
2023/07/22 08:06:15;;;;;;;5.13;1.40;;;23.90;99.90;;;;;;2584960;54;20035;31
2023/07/22 08:08:57;;;;;;;2.40;1.53;;;24.10;99.90;;;;;;2584989;54;21227;31
2023/07/22 08:13:58;;;;;;;5.10;1.50;;;24.40;99.90;;;;;;2584843;54;20277;31
2023/07/22 08:19:09;;;;;;;1.63;1.42;;;24.40;99.90;;;;;;2584590;54;20775;31
2023/07/22 08:21:48;;;;;;;3.70;1.50;;;24.20;99.90;;;;;;2585739;54;20049;31
2023/07/22 08:24:27;;;;;;;1.57;1.37;;;24.40;99.90;;;;;;2604237;47;20064;31
2023/07/22 08:27:04;;;;;;;4.47;1.23;;;24.70;99.90;;;;;;2585813;54;20270;31
2023/07/22 08:29:44;;;;;;;1.98;1.10;;;25.00;99.90;;;;;;2585448;54;20033;31
2023/07/22 08:32:20;;;;;;;5.97;1.27;;;25.00;99.90;;;;;;2585767;54;20035;31
2023/07/22 08:34:58;;;;;;;4.30;1.00;;;24.60;99.90;;;;;;2586179;54;20085;31
2023/07/22 08:37:35;;;;;;;2.97;1.43;;;24.80;99.90;;;;;;2586662;54;20543;31
2023/07/22 08:40:14;;;;;;;3.97;1.15;;;25.00;99.90;;;;;;2594259;46;20950;31
2023/07/22 08:42:50;;;;;;;3.20;1.05;;;25.10;99.90;;;;;;2586807;54;20926;31
2023/07/22 08:45:29;;;;;;;2.30;1.08;;;25.30;99.90;;;;;;2585986;54;20931;31
2023/07/22 08:48:07;;;;;;;6.05;1.00;;;25.30;99.90;;;;;;2585909;54;20868;31
2023/07/22 08:51:06;;;;;;;2.50;1.10;;;25.30;99.90;;;;;;2585596;54;20053;31
2023/07/22 08:53:44;;;;;;;7.30;1.20;;;25.10;99.90;;;;;;2586589;54;20101;31
2023/07/22 08:56:45;;;;;;;2.53;1.10;;;25.30;99.90;;;;;;2755620;31;21534;31
2023/07/22 08:59:25;;;;;;;6.20;1.33;;;25.40;99.90;;;;;;2586601;54;21058;31
2023/07/22 09:02:03;;;;;;;9.33;1.40;;;25.60;99.90;;;;;;2684592;39;21442;31
2023/07/22 09:04:43;;;;;;;2.47;1.40;;;25.50;99.90;;;;;;2586365;54;21073;31
2023/07/22 09:07:29;;;;;;;2.25;1.15;;;25.60;99.90;;;;;;2586566;54;20855;31
2023/07/22 09:10:13;;;;;;;2.80;1.10;;;25.70;99.90;;;;;;2586616;54;20046;31
2023/07/22 09:12:55;;;;;;;2.38;1.20;;;25.70;99.90;;;;;;2605331;46;20060;31
2023/07/22 09:15:32;;;;;;;6.25;1.20;;;25.90;99.90;;;;;;2605060;46;20827;31
2023/07/22 09:18:08;;;;;;;5.10;1.30;;;26.20;99.90;;;;;;2586549;54;20042;31
2023/07/22 09:20:45;;;;;;;1.95;1.30;;;26.50;99.90;;;;;;2586605;54;20762;31
2023/07/22 09:23:35;;;;;;;3.35;1.27;;;26.80;99.90;;;;;;2586562;54;20895;31
2023/07/22 09:26:20;;;;;;;5.85;1.83;;;26.90;99.10;;;;;;2586196;54;20030;31
2023/07/22 09:28:56;;;;;;;2.13;1.27;;;27.00;98.20;;;;;;2586584;54;21029;31
2023/07/22 09:31:32;;;;;;;10.10;2.20;;;26.90;98.40;;;;;;2595152;46;20246;31
2023/07/22 09:34:12;;;;;;;2.35;1.30;;;26.70;97.80;;;;;;2604971;46;20085;31
2023/07/22 09:37:00;;;;;;;2.25;1.42;;;26.30;98.40;;;;;;2586477;54;20053;31
2023/07/22 09:39:38;;;;;;;3.80;1.20;;;26.30;98.80;;;;;;2586066;54;20974;31
2023/07/22 09:42:11;;;;;;;3.70;1.50;;;26.50;98.80;;;;;;2586141;54;20030;31
2023/07/22 09:44:48;;;;;;;5.23;1.67;;;26.50;97.80;;;;;;2604432;46;20058;31
2023/07/22 09:47:21;;;;;;;4.33;1.90;;;26.60;97.80;;;;;;2604733;46;20026;31
2023/07/22 09:49:58;;;;;;;4.13;1.50;;;26.50;97.50;;;;;;2586284;54;20116;31
2023/07/22 09:52:37;;;;;;;2.67;1.55;;;26.30;97.20;;;;;;2586494;54;20908;31
2023/07/22 09:55:19;;;;;;;2.53;1.75;;;26.10;96.70;;;;;;2586311;54;20177;31
2023/07/22 09:57:57;;;;;;;3.35;1.60;;;26.00;97.00;;;;;;2605028;46;20875;31
2023/07/22 10:00:36;;;;;;;3.65;1.70;;;26.10;97.30;;;;;;2597418;46;20063;31
2023/07/22 10:03:16;;;;;;;6.30;2.00;;;26.00;97.40;;;;;;2585553;54;20883;31
2023/07/22 10:05:58;;;;;;;3.17;1.43;;;26.10;96.90;;;;;;2585511;54;20034;31
2023/07/22 10:08:31;;;;;;;2.95;1.70;;;26.30;96.50;;;;;;2604697;46;20068;31
2023/07/22 10:11:09;;;;;;;4.60;1.40;;;26.20;96.60;;;;;;2585371;54;20903;31
2023/07/22 10:16:25;;;;;;;6.05;1.90;;;26.00;97.20;;;;;;2586359;54;21270;31
2023/07/22 10:19:04;;;;;;;3.17;1.80;;;26.20;97.70;;;;;;2586434;54;20052;31
2023/07/22 10:21:41;;;;;;;5.60;1.98;;;26.50;96.90;;;;;;2586133;54;20981;31
2023/07/22 10:24:18;;;;;;;2.27;1.53;;;26.50;95.00;;;;;;2586343;54;20023;31
2023/07/22 10:26:58;;;;;;;2.17;1.10;;;26.50;95.10;;;;;;2586587;54;20085;31
2023/07/22 10:29:44;;;;;;;2.85;1.65;;;26.30;93.70;;;;;;2586326;54;20023;31
2023/07/22 10:32:22;;;;;;;4.30;1.63;;;25.90;93.60;;;;;;2604442;46;20055;31
2023/07/22 10:34:57;;;;;;;2.85;1.60;;;25.50;93.60;;;;;;2586284;54;20770;31
2023/07/22 10:37:36;;;;;;;2.58;1.52;;;25.50;94.30;;;;;;2585644;54;20746;31
2023/07/22 10:40:28;;;;;;;4.35;1.90;;;25.50;94.90;;;;;;2585449;54;20023;31
2023/07/22 10:43:07;;;;;;;5.30;1.95;;;25.40;94.60;;;;;;2604947;46;21111;31
2023/07/22 10:45:45;;;;;;;4.60;1.70;;;25.20;94.50;;;;;;2586364;54;20879;31
2023/07/22 10:48:21;;;;;;;6.05;2.00;;;25.10;94.50;;;;;;2604712;46;20760;31
2023/07/22 10:51:00;;;;;;;2.42;1.50;;;25.10;93.80;;;;;;2586140;54;20064;31
2023/07/22 10:53:44;;;;;;;2.90;1.60;;;25.30;94.30;;;;;;2591733;46;20844;31
2023/07/22 10:56:24;;;;;;;3.13;1.73;;;25.40;93.30;;;;;;2585313;54;20122;31
2023/07/22 10:59:04;;;;;;;3.15;1.33;;;25.40;94.20;;;;;;2586282;54;20882;31
2023/07/22 11:01:44;;;;;;;1.60;1.50;;;25.30;91.50;;;;;;2586224;54;20744;31
2023/07/22 11:04:30;;;;;;;2.10;1.60;;;25.20;91.50;;;;;;2586331;54;20026;31
2023/07/22 11:07:36;;;;;;;3.90;1.80;;;25.10;92.30;;;;;;2586361;54;20063;31
2023/07/22 11:10:20;;;;;;;5.15;1.50;;;24.90;91.90;;;;;;2604542;46;20027;31
2023/07/22 11:12:58;;;;;;;2.33;1.55;;;24.70;92.60;;;;;;2604884;46;20882;31
2023/07/22 11:15:40;;;;;;;2.40;1.50;;;24.60;93.40;;;;;;2586293;54;20027;31
2023/07/22 11:18:22;;;;;;;2.00;1.42;;;24.50;93.30;;;;;;2586132;54;20943;31
2023/07/22 11:20:59;;;;;;;1.80;1.60;;;24.30;92.80;;;;;;2585398;54;20911;31
2023/07/22 11:23:37;;;;;;;4.85;1.75;;;24.30;94.40;;;;;;2701850;39;20729;31
2023/07/22 11:26:18;;;;;;;2.78;1.33;;;24.60;94.20;;;;;;2586253;54;20922;31
2023/07/22 11:28:56;;;;;;;2.95;1.85;;;24.90;95.00;;;;;;2585919;54;20899;31
2023/07/22 11:31:37;;;;;;;4.90;1.80;;;24.90;93.30;;;;;;2586174;54;20038;31
2023/07/22 11:34:12;;;;;;;3.47;1.80;;;24.70;92.60;;;;;;2604712;47;20936;31
2023/07/22 11:36:52;;;;;;;2.00;1.60;;;24.50;93.20;;;;;;2586156;54;20985;31
2023/07/22 11:39:32;;;;;;;7.05;2.00;;;24.30;93.70;;;;;;2585715;54;20277;31
2023/07/22 11:42:12;;;;;;;5.60;1.80;;;24.10;94.00;;;;;;2585866;54;20026;31
2023/07/22 11:44:46;;;;;;;2.40;1.60;;;24.10;94.10;;;;;;2585996;54;20030;31
2023/07/22 11:47:31;;;;;;;4.95;1.85;;;24.00;93.80;;;;;;2604406;47;20858;31
2023/07/22 11:50:13;;;;;;;5.50;1.60;;;24.00;93.60;;;;;;2586213;54;20057;31
2023/07/22 11:52:55;;;;;;;5.00;1.53;;;24.20;93.80;;;;;;2586091;54;20058;31
2023/07/22 11:55:32;;;;;;;2.30;1.50;;;24.30;93.30;;;;;;2585608;54;20914;31
2023/07/22 11:58:11;;;;;;;4.17;1.83;;;24.50;94.70;;;;;;2586031;54;20293;31
2023/07/22 12:00:47;;;;;;;3.30;1.90;;;24.80;94.20;;;;;;2604410;47;20027;31
2023/07/22 12:03:41;;;;;;;3.30;1.50;;;25.10;94.40;;;;;;2586076;54;21081;31
2023/07/22 12:06:19;;;;;;;3.30;1.70;;;25.10;92.10;;;;;;2586032;54;20898;31
2023/07/22 12:08:57;;;;;;;5.70;2.15;;;25.00;92.10;;;;;;2586171;54;20053;31
2023/07/22 12:11:31;;;;;;;5.25;1.60;;;24.80;92.00;;;;;;2585817;54;20041;31
2023/07/22 12:14:13;;;;;;;3.78;1.55;;;24.90;92.20;;;;;;2586186;54;20026;31
2023/07/22 12:16:50;;;;;;;4.00;1.40;;;25.10;92.80;;;;;;2586819;54;20078;31
2023/07/22 12:19:30;;;;;;;4.40;1.40;;;25.40;91.60;;;;;;2586683;54;20759;31
2023/07/22 12:22:05;;;;;;;4.68;2.40;;;25.50;92.00;;;;;;2586593;54;20036;31
2023/07/22 12:24:43;;;;;;;2.75;1.70;;;25.50;90.50;;;;;;2586855;54;20030;31
2023/07/22 12:27:18;;;;;;;6.85;1.85;;;25.30;90.30;;;;;;2605178;46;20047;31
2023/07/22 12:29:57;;;;;;;3.15;1.92;;;25.30;91.10;;;;;;2586638;54;20031;31
2023/07/22 12:32:34;;;;;;;3.05;1.85;;;25.30;90.70;;;;;;2586796;54;20027;31
2023/07/22 12:35:13;;;;;;;4.55;2.13;;;25.10;90.10;;;;;;2586393;54;20031;31
2023/07/22 12:37:50;;;;;;;3.40;1.77;;;25.00;88.60;;;;;;2605222;46;20869;31
2023/07/22 12:40:27;;;;;;;2.30;1.70;;;25.00;90.10;;;;;;2586793;54;20859;31
2023/07/22 12:43:06;;;;;;;4.95;1.70;;;25.10;89.30;;;;;;2586543;54;20864;31
2023/07/22 12:48:39;;;;;;;12.20;5.23;;;25.30;87.40;;;;;;2604777;46;20121;31
2023/07/22 15:00:12;;;;;;;4.45;2.00;;;24.80;81.20;;;;;;2585063;54;20943;31
2023/07/22 15:02:51;;;;;;;2.70;2.05;;;24.80;81.20;;;;;;2586253;54;20919;31
2023/07/22 15:05:28;;;;;;;2.67;2.27;;;24.80;81.40;;;;;;2585789;54;20026;31
2023/07/22 15:08:08;;;;;;;3.63;2.17;;;24.80;81.70;;;;;;2586168;54;21181;31
2023/07/22 15:10:42;;;;;;;4.43;2.00;;;24.90;81.80;;;;;;2585935;54;20090;31
2023/07/22 15:13:20;;;;;;;2.00;1.57;;;25.00;82.30;;;;;;2585447;54;20756;31
2023/07/22 15:16:03;;;;;;;3.40;1.60;;;24.90;80.60;;;;;;2586031;54;20837;31
2023/07/22 15:18:38;;;;;;;2.78;1.40;;;24.90;79.80;;;;;;2604383;46;20022;31
2023/07/22 15:21:18;;;;;;;2.10;1.80;;;25.00;80.40;;;;;;2684019;39;21317;31
2023/07/22 15:23:54;;;;;;;2.70;1.80;;;25.00;80.40;;;;;;2585878;54;20899;31
2023/07/22 15:26:34;;;;;;;8.35;2.10;;;25.00;79.90;;;;;;2586438;54;20966;31
2023/07/22 15:32:13;;;;;;;3.57;1.83;;;24.90;80.50;;;;;;2701567;39;20426;31
2023/07/22 15:34:56;;;;;;;2.37;1.60;;;24.90;79.00;;;;;;2585940;54;20241;31
2023/07/22 15:40:28;;;;;;;7.10;1.60;;;24.70;79.30;;;;;;2585875;54;20889;31
2023/07/22 15:46:01;;;;;;;4.00;1.80;;;24.40;79.40;;;;;;2585902;54;20874;31
2023/07/22 15:48:41;;;;;;;4.85;2.28;;;24.40;79.70;;;;;;2586973;54;20959;31
2023/07/22 17:06:50;;;;;;;11.65;2.25;;;23.70;82.10;;;;;;2602810;54;21387;31
2023/07/22 17:09:25;;;;;;;3.40;2.10;;;23.60;80.90;;;;;;2586614;54;20879;31
2023/07/22 17:12:01;;;;;;;3.28;1.98;;;23.60;82.20;;;;;;2586508;54;20746;31
2023/07/22 17:14:43;;;;;;;3.50;1.80;;;23.60;82.90;;;;;;2586573;54;20930;31
2023/07/22 17:17:29;;;;;;;3.15;1.90;;;23.50;82.70;;;;;;2586524;54;20943;31
2023/07/22 17:20:08;;;;;;;3.97;2.10;;;23.60;82.30;;;;;;2585587;54;20567;31
2023/07/22 17:22:52;;;;;;;4.60;1.92;;;23.40;83.20;;;;;;2585657;54;20824;31
2023/07/22 17:25:36;;;;;;;3.40;2.07;;;23.30;82.70;;;;;;2586547;54;20129;31
2023/07/22 17:28:17;;;;;;;4.40;1.90;;;23.30;82.80;;;;;;2586606;54;20731;31
2023/07/22 17:31:01;;;;;;;2.53;1.67;;;23.30;83.30;;;;;;2588358;46;20023;31
2023/07/22 17:33:37;;;;;;;7.40;2.10;;;23.20;83.80;;;;;;2586539;54;20088;31
2023/07/22 17:36:18;;;;;;;8.40;2.33;;;23.20;84.60;;;;;;2584969;54;20049;31
2023/07/22 17:39:04;;;;;;;9.27;2.67;;;23.10;85.10;;;;;;2586470;54;20029;31
2023/07/22 18:28:06;;;;;;;3.20;2.13;;;22.10;91.20;;;;;;2586108;54;21033;31
2023/07/22 18:30:52;;;;;;;6.63;2.40;;;22.00;91.60;;;;;;2586123;54;20037;31
2023/07/22 19:11:47;;;;;;;4.65;2.75;;;20.50;99.00;;;;;;2586048;54;20937;31